< < Back
Terminal Aerodrome Forecast


Current Version              Previous Versions:   1  2  3  4  5  6  7  8  9  

Terminal Aerodrome Forecast

825
FTUS42 KFFC 031530 AAB
TAFPDK
TAF AMD
KPDK 031530Z 0316/0412 23008KT 4SM -SHRA BR SCT025 BKN050
     FM032000 24010KT P6SM VCSH SCT050 BKN100
     FM040100 27008KT P6SM -SHRA BKN030 BKN080
     FM040600 26009KT P6SM OVC020=

Latest METAR

600
SAUS70 KWBC 041000 RRI
MTRPDK
METAR KPDK 040953Z 00000KT 9SM FEW090 BKN110 20/19 A3002 RMK AO2 RAE24
SLP152 P0001 T02000194


USA.gov is the U.S. government's official web portal to all federal, state and local government web resources and services.